createdAt,value
2022-11-18T00:00:13.786Z,12.94
2022-11-18T00:02:41.722Z,13.02
2022-11-18T00:05:09.745Z,12.26
2022-11-18T00:07:37.680Z,13.25
2022-11-18T00:10:06.030Z,12.12
2022-11-18T00:12:51.188Z,13.41
2022-11-18T00:15:20.453Z,13.79
2022-11-18T00:17:49.995Z,14.12
2022-11-18T00:20:20.842Z,13.85
2022-11-18T00:22:48.613Z,13.53
2022-11-18T00:25:16.394Z,13.35
2022-11-18T00:27:44.534Z,14.19
2022-11-18T00:30:13.053Z,12.37
2022-11-18T00:32:43.215Z,14.11
2022-11-18T00:35:11.067Z,12.55
2022-11-18T00:37:38.943Z,14.03
2022-11-18T00:40:08.025Z,13.45
2022-11-18T00:42:53.681Z,12.95
2022-11-18T00:45:21.590Z,12.85
2022-11-18T00:47:50.791Z,13.91
2022-11-18T00:50:18.862Z,12.98
2022-11-18T00:52:46.749Z,13.22
2022-11-18T00:55:14.528Z,12.69
2022-11-18T00:57:42.357Z,12.92
2022-11-18T01:00:11.314Z,12.58
2022-11-18T01:02:39.126Z,13.57
2022-11-18T01:05:09.206Z,12.41
2022-11-18T01:07:37.104Z,13.04
2022-11-18T01:10:05.589Z,13.32
2022-11-18T01:12:54.231Z,14.15
2022-11-18T01:15:22.338Z,14.11
2022-11-18T01:17:50.167Z,14.15
2022-11-18T01:20:19.342Z,13.70
2022-11-18T01:22:47.361Z,14.08
2022-11-18T01:25:15.210Z,13.87
2022-11-18T01:27:43.121Z,12.71
2022-11-18T01:30:11.562Z,13.24
2022-11-18T01:32:39.453Z,13.86
2022-11-18T01:35:08.301Z,13.60
2022-11-18T01:37:37.548Z,13.14
2022-11-18T01:40:06.103Z,13.81
2022-11-18T01:42:33.941Z,12.31
2022-11-18T01:45:05.283Z,13.50
2022-11-18T01:47:34.116Z,13.09
2022-11-18T01:50:02.050Z,13.04
2022-11-18T01:52:29.982Z,12.77
2022-11-18T01:55:00.585Z,13.31
2022-11-18T01:57:30.589Z,14.10
2022-11-18T01:59:59.118Z,13.10
2022-11-18T02:02:26.768Z,13.45
2022-11-18T02:04:54.439Z,13.83
2022-11-18T02:07:22.578Z,14.17
2022-11-18T02:09:50.347Z,14.06
2022-11-18T02:12:19.524Z,13.20
2022-11-18T02:14:47.426Z,13.60
2022-11-18T02:17:18.368Z,13.30
2022-11-18T02:20:09.084Z,12.64
2022-11-18T02:22:47.104Z,14.10
2022-11-18T02:25:17.760Z,13.39
2022-11-18T02:28:08.334Z,13.02
2022-11-18T02:30:40.870Z,13.02
2022-11-18T02:33:09.867Z,13.23
2022-11-18T02:35:41.008Z,13.96
2022-11-18T02:38:10.186Z,12.15
2022-11-18T02:40:39.036Z,12.45
2022-11-18T02:43:08.174Z,13.97
2022-11-18T02:45:37.281Z,12.56
2022-11-18T02:48:07.388Z,13.78
2022-11-18T02:50:35.284Z,12.55
2022-11-18T02:53:04.535Z,13.92
2022-11-18T02:55:33.969Z,14.07
2022-11-18T02:58:01.783Z,13.40
2022-11-18T03:00:29.549Z,12.67
2022-11-18T03:02:58.725Z,13.36
2022-11-18T03:05:28.515Z,13.67
2022-11-18T03:07:57.380Z,13.56
2022-11-18T03:10:25.198Z,11.73
2022-11-18T03:12:55.236Z,13.77
2022-11-18T03:15:25.993Z,13.47
2022-11-18T03:18:00.150Z,13.46
2022-11-18T03:20:28.890Z,12.22
2022-11-18T03:22:58.581Z,12.13
2022-11-18T03:25:30.183Z,12.23
2022-11-18T03:28:01.673Z,14.00
2022-11-18T03:30:29.371Z,12.88
2022-11-18T03:33:01.709Z,12.59
2022-11-18T03:35:31.812Z,11.55
2022-11-18T03:38:01.462Z,13.66
2022-11-18T03:40:31.224Z,14.03
2022-11-18T03:43:01.075Z,13.00
2022-11-18T03:45:30.593Z,13.54
2022-11-18T03:48:01.809Z,14.28
2022-11-18T03:50:31.908Z,13.26
2022-11-18T03:52:59.597Z,12.71
2022-11-18T03:55:29.005Z,14.29
2022-11-18T03:57:57.822Z,13.88
2022-11-18T04:00:25.559Z,13.90
2022-11-18T04:02:53.466Z,14.36
2022-11-18T04:05:22.664Z,12.86
2022-11-18T04:07:55.110Z,13.33
2022-11-18T04:10:24.043Z,13.66
2022-11-18T04:12:54.191Z,14.38
2022-11-18T04:15:21.947Z,13.47
2022-11-18T04:17:49.843Z,12.69
2022-11-18T04:20:19.725Z,14.21
2022-11-18T04:22:49.030Z,13.81
2022-11-18T04:25:16.982Z,12.98
2022-11-18T04:27:44.700Z,14.41
2022-11-18T04:30:13.727Z,13.02
2022-11-18T04:32:41.460Z,13.84
2022-11-18T04:35:09.689Z,13.56
2022-11-18T04:37:37.614Z,13.47
2022-11-18T04:40:07.900Z,14.38
2022-11-18T04:42:35.661Z,13.10
2022-11-18T04:45:03.428Z,14.36
2022-11-18T04:47:31.313Z,12.67
2022-11-18T04:49:59.060Z,12.03
2022-11-18T04:52:26.779Z,13.77
2022-11-18T04:54:54.503Z,13.76
2022-11-18T04:57:23.768Z,13.56
2022-11-18T04:59:51.607Z,12.87
2022-11-18T05:02:19.391Z,14.37
2022-11-18T05:04:47.208Z,13.19
2022-11-18T05:07:15.453Z,13.49
2022-11-18T05:09:43.258Z,14.32
2022-11-18T05:12:30.597Z,13.79
2022-11-18T05:14:59.854Z,14.32
2022-11-18T05:17:27.606Z,12.63
2022-11-18T05:19:55.432Z,12.19
2022-11-18T05:22:23.141Z,12.88
2022-11-18T05:24:50.950Z,13.96
2022-11-18T05:27:18.685Z,13.44
2022-11-18T05:29:46.452Z,13.86
2022-11-18T05:32:15.704Z,14.35
2022-11-18T05:34:43.520Z,13.08
2022-11-18T05:37:11.322Z,13.84
2022-11-18T05:39:39.163Z,13.19
2022-11-18T05:42:24.674Z,13.26
2022-11-18T05:44:57.780Z,13.60
2022-11-18T05:47:27.715Z,14.36
2022-11-18T05:49:55.471Z,13.47
2022-11-18T05:52:23.194Z,13.57
2022-11-18T05:54:51.513Z,13.65
2022-11-18T05:57:19.211Z,14.41
2022-11-18T05:59:46.908Z,12.58
2022-11-18T06:02:15.645Z,13.06
2022-11-18T06:04:46.544Z,13.54
2022-11-18T06:07:16.931Z,12.18
2022-11-18T06:09:46.257Z,13.85
2022-11-18T06:12:14.537Z,12.18
2022-11-18T06:14:43.322Z,14.09
2022-11-18T06:17:13.632Z,13.37
2022-11-18T06:19:41.535Z,12.80
2022-11-18T06:22:10.730Z,12.93
2022-11-18T06:24:38.589Z,12.83
2022-11-18T06:27:06.487Z,12.96
2022-11-18T06:29:34.296Z,12.80
2022-11-18T06:32:03.110Z,13.72
2022-11-18T06:34:35.620Z,13.70
2022-11-18T06:37:15.103Z,13.16
2022-11-18T06:39:42.815Z,14.05
2022-11-18T06:42:10.497Z,12.85
2022-11-18T06:44:37.613Z,13.17
2022-11-18T06:47:05.586Z,13.00
2022-11-18T06:49:33.478Z,12.01
2022-11-18T06:52:01.380Z,12.07
2022-11-18T06:54:30.591Z,12.43
2022-11-18T06:56:58.311Z,12.42
2022-11-18T06:59:26.308Z,12.77
2022-11-18T07:01:54.260Z,13.62
2022-11-18T07:04:22.361Z,13.38
2022-11-18T07:06:50.170Z,13.91
2022-11-18T07:09:18.302Z,14.59
2022-11-18T07:11:47.869Z,14.61
2022-11-18T07:14:15.729Z,13.29
2022-11-18T07:16:43.529Z,13.05
2022-11-18T07:19:12.211Z,14.43
2022-11-18T07:21:40.259Z,13.06
2022-11-18T07:24:08.753Z,13.52
2022-11-18T07:26:36.578Z,14.12
2022-11-18T07:29:06.008Z,13.33
2022-11-18T07:31:34.349Z,13.15
2022-11-18T07:34:02.181Z,14.10
2022-11-18T07:36:38.142Z,12.88
2022-11-18T07:39:11.803Z,13.41
2022-11-18T07:41:44.768Z,13.20
2022-11-18T07:44:18.719Z,13.71
2022-11-18T07:46:46.899Z,13.92
2022-11-18T07:49:15.948Z,12.09
2022-11-18T07:51:51.535Z,14.02
2022-11-18T07:54:25.700Z,13.02
2022-11-18T07:56:54.026Z,13.23
2022-11-18T07:59:26.445Z,12.74
2022-11-18T08:02:13.088Z,13.10
2022-11-18T08:05:18.283Z,12.27
2022-11-18T08:08:07.235Z,13.11
2022-11-18T08:10:37.229Z,12.84
2022-11-18T08:13:13.624Z,14.78
2022-11-18T08:15:43.702Z,13.13
2022-11-18T08:18:13.813Z,14.70
2022-11-18T08:20:45.071Z,14.84
2022-11-18T08:23:14.539Z,12.18
2022-11-18T08:25:42.796Z,13.71
2022-11-18T08:28:14.424Z,13.47
2022-11-18T08:30:47.077Z,14.74
2022-11-18T08:33:16.121Z,14.41
2022-11-18T08:43:57.723Z,15.11
2022-11-18T09:09:19.621Z,15.08
2022-11-18T09:11:56.179Z,13.60
2022-11-18T09:17:51.120Z,13.14
2022-11-18T09:23:39.029Z,14.84
2022-11-18T09:27:23.767Z,12.69
2022-11-18T09:34:29.787Z,15.57
2022-11-18T09:41:30.157Z,14.41
2022-11-18T09:44:57.169Z,14.01
2022-11-18T09:51:32.631Z,15.69
2022-11-18T09:58:11.902Z,15.67
2022-11-18T10:01:10.675Z,14.60
2022-11-18T10:04:32.024Z,14.63
2022-11-18T10:07:01.756Z,12.99
2022-11-18T10:17:20.373Z,14.28
2022-11-18T10:19:53.166Z,15.03
2022-11-18T10:22:43.217Z,16.34
2022-11-18T10:25:15.353Z,15.16
2022-11-18T10:27:45.858Z,14.39
2022-11-18T10:30:17.601Z,14.34
2022-11-18T10:33:38.375Z,16.92
2022-11-18T10:36:29.380Z,16.77
2022-11-18T10:39:22.027Z,14.46
2022-11-18T10:42:39.003Z,17.52
2022-11-18T10:45:17.377Z,17.69
2022-11-18T10:47:45.316Z,15.22
2022-11-18T10:54:38.515Z,16.58
2022-11-18T10:57:12.413Z,16.82
2022-11-18T10:59:41.275Z,17.21
2022-11-18T11:02:16.796Z,18.10
2022-11-18T11:04:50.073Z,19.07
2022-11-18T11:07:27.686Z,16.69
2022-11-18T11:10:15.796Z,16.94
2022-11-18T11:12:47.265Z,16.08
2022-11-18T11:15:17.424Z,18.40
2022-11-18T11:18:13.089Z,18.78
2022-11-18T11:20:54.439Z,19.41
2022-11-18T11:23:24.027Z,19.28
2022-11-18T11:28:45.577Z,18.83
2022-11-18T11:31:16.651Z,18.78
2022-11-18T11:33:44.751Z,18.26
2022-11-18T11:36:23.493Z,18.65
2022-11-18T11:39:04.697Z,18.42
2022-11-18T11:41:37.621Z,18.40
2022-11-18T11:44:24.625Z,18.44
2022-11-18T11:47:15.803Z,18.35
2022-11-18T11:49:50.782Z,18.48
2022-11-18T11:52:21.077Z,20.00
2022-11-18T11:54:52.380Z,21.08
2022-11-18T11:57:28.393Z,21.01
2022-11-18T12:00:00.618Z,20.82
2022-11-18T12:02:44.371Z,20.55
2022-11-18T12:05:18.493Z,20.35
2022-11-18T12:07:47.980Z,20.09
2022-11-18T12:10:25.057Z,21.23
2022-11-18T12:12:57.837Z,23.80
2022-11-18T12:15:37.359Z,24.36
2022-11-18T12:18:12.012Z,26.67
2022-11-18T12:20:45.416Z,26.01
2022-11-18T12:23:17.718Z,23.74
2022-11-18T12:26:05.683Z,21.76
2022-11-18T12:28:37.143Z,22.71
2022-11-18T12:31:38.520Z,22.14
2022-11-18T12:34:19.929Z,20.72
2022-11-18T12:36:47.784Z,19.15
2022-11-18T12:39:58.362Z,20.38
2022-11-18T12:42:57.940Z,17.80
2022-11-18T12:45:55.288Z,19.66
2022-11-18T12:48:39.962Z,18.94
2022-11-18T12:51:47.781Z,19.25
2022-11-18T12:54:27.974Z,19.04
2022-11-18T12:56:56.256Z,17.97
2022-11-18T12:59:31.880Z,18.74
2022-11-18T13:02:21.567Z,16.95
2022-11-18T13:05:05.416Z,16.91
2022-11-18T13:07:51.585Z,16.61
2022-11-18T13:10:23.566Z,17.54
2022-11-18T13:12:52.297Z,18.20
2022-11-18T13:15:38.105Z,17.01
2022-11-18T13:18:14.550Z,16.60
2022-11-18T13:20:43.137Z,16.64
2022-11-18T13:23:47.009Z,16.75
2022-11-18T13:26:29.180Z,17.00
2022-11-18T13:29:20.570Z,17.11
2022-11-18T13:31:51.286Z,16.86
2022-11-18T13:34:21.702Z,17.54
2022-11-18T13:36:50.245Z,15.37
2022-11-18T13:39:23.936Z,16.46
2022-11-18T13:42:02.120Z,16.49
2022-11-18T13:44:30.715Z,16.19
2022-11-18T13:47:02.530Z,15.89
2022-11-18T13:49:50.558Z,14.85
2022-11-18T13:52:20.578Z,15.85
2022-11-18T13:54:48.419Z,14.35
2022-11-18T13:57:19.672Z,15.56
2022-11-18T13:59:47.559Z,15.78
2022-11-18T14:02:15.413Z,15.06
2022-11-18T14:04:52.081Z,16.28
2022-11-18T14:07:33.091Z,15.26
2022-11-18T14:10:02.028Z,13.50
2022-11-18T14:12:32.542Z,13.92
2022-11-18T14:15:43.328Z,16.14
2022-11-18T14:18:18.540Z,16.01
2022-11-18T14:20:53.181Z,15.20
2022-11-18T14:23:22.670Z,12.72
2022-11-18T14:25:50.988Z,14.42
2022-11-18T14:28:21.794Z,14.44
2022-11-18T14:31:03.991Z,15.75
2022-11-18T14:33:32.323Z,13.09
2022-11-18T14:36:02.319Z,13.51
2022-11-18T14:38:52.031Z,14.89
2022-11-18T14:41:44.484Z,13.74
2022-11-18T14:44:13.907Z,14.06
2022-11-18T14:46:42.468Z,14.76
2022-11-18T14:49:13.402Z,15.01
2022-11-18T14:51:42.823Z,13.36
2022-11-18T14:54:13.955Z,14.57
2022-11-18T14:56:41.855Z,13.24
2022-11-18T14:59:12.861Z,12.61
2022-11-18T15:01:40.948Z,14.49
2022-11-18T15:04:08.917Z,13.73
2022-11-18T15:06:36.806Z,12.40
2022-11-18T15:09:06.414Z,15.08
2022-11-18T15:11:34.335Z,12.78
2022-11-18T15:14:02.243Z,14.96
2022-11-18T15:16:30.891Z,14.90
2022-11-18T15:19:00.388Z,13.36
2022-11-18T15:21:28.425Z,11.78
2022-11-18T15:23:56.340Z,13.44
2022-11-18T15:26:26.335Z,13.90
2022-11-18T15:28:55.160Z,13.20
2022-11-18T15:31:23.368Z,12.31
2022-11-18T15:39:14.443Z,14.13
2022-11-18T15:41:43.883Z,14.06
2022-11-18T15:44:11.998Z,11.29
2022-11-18T15:46:39.889Z,13.53
2022-11-18T15:49:09.697Z,13.61
2022-11-18T15:51:37.946Z,13.78
2022-11-18T15:54:05.851Z,13.28
2022-11-18T15:56:34.226Z,13.67
2022-11-18T15:59:04.117Z,12.27
2022-11-18T16:01:45.818Z,10.42
2022-11-18T16:04:17.535Z,11.73
2022-11-18T16:06:45.809Z,13.43
2022-11-18T16:09:13.923Z,12.83
2022-11-18T16:11:59.233Z,12.05
2022-11-18T16:14:29.663Z,11.53
2022-11-18T16:16:57.531Z,12.85
2022-11-18T16:19:26.095Z,13.12
2022-11-18T16:21:56.689Z,11.19
2022-11-18T16:24:26.680Z,11.90
2022-11-18T16:26:54.429Z,11.25
2022-11-18T16:29:22.655Z,12.97
2022-11-18T16:31:52.857Z,10.64
2022-11-18T16:34:22.088Z,12.86
2022-11-18T16:36:50.875Z,12.30
2022-11-18T16:39:19.737Z,12.81
2022-11-18T16:41:47.957Z,12.77
2022-11-18T16:44:16.785Z,11.61
2022-11-18T16:46:47.231Z,10.66
2022-11-18T16:49:18.650Z,10.96
2022-11-18T16:51:47.214Z,12.64
2022-11-18T16:54:16.998Z,12.60
2022-11-18T16:56:44.952Z,11.24
2022-11-18T16:59:15.678Z,12.55
2022-11-18T17:01:43.737Z,11.44
2022-11-18T17:04:12.489Z,12.02
2022-11-18T17:06:42.100Z,11.67
2022-11-18T17:09:13.583Z,12.43
2022-11-18T17:11:41.344Z,8.86
2022-11-18T17:14:10.376Z,11.89
2022-11-18T17:16:38.668Z,11.29
2022-11-18T17:19:11.573Z,10.82
2022-11-18T17:21:46.148Z,11.31
2022-11-18T17:24:15.631Z,10.16
2022-11-18T17:26:49.757Z,8.46
2022-11-18T17:29:18.349Z,12.14
2022-11-18T17:31:46.391Z,12.08
2022-11-18T17:34:14.877Z,10.28
2022-11-18T17:36:42.838Z,10.45
2022-11-18T17:39:13.600Z,12.04
2022-11-18T17:41:58.677Z,10.83
2022-11-18T17:44:26.384Z,11.66
2022-11-18T17:46:54.085Z,10.47
2022-11-18T17:49:22.307Z,12.04
2022-11-18T17:51:51.229Z,12.06
2022-11-18T17:54:21.108Z,12.08
2022-11-18T17:56:50.057Z,12.00
2022-11-18T17:59:18.325Z,12.11
2022-11-18T18:01:46.313Z,12.14
2022-11-18T18:04:14.493Z,10.47
2022-11-18T18:06:42.352Z,10.89
2022-11-18T18:09:10.447Z,12.38
2022-11-18T18:11:39.990Z,12.43
2022-11-18T18:14:12.881Z,10.97
2022-11-18T18:16:45.024Z,12.54
2022-11-18T18:19:14.189Z,11.85
2022-11-18T18:21:42.150Z,10.31
2022-11-18T18:24:10.515Z,12.70
2022-11-18T18:26:43.867Z,11.51
2022-11-18T18:29:12.304Z,11.23
2022-11-18T18:31:42.177Z,12.77
2022-11-18T18:34:10.083Z,12.07
2022-11-18T18:36:38.127Z,12.51
2022-11-18T18:39:05.943Z,10.94
2022-11-18T18:41:33.783Z,11.33
2022-11-18T18:44:02.956Z,12.47
2022-11-18T18:46:30.787Z,12.62
2022-11-18T18:49:00.948Z,11.24
2022-11-18T18:51:29.218Z,12.19
2022-11-18T18:53:57.339Z,11.74
2022-11-18T18:56:26.394Z,11.55
2022-11-18T18:58:54.339Z,12.53
2022-11-18T19:01:23.914Z,12.27
2022-11-18T19:03:54.975Z,12.22
2022-11-18T19:09:17.503Z,13.03
2022-11-18T19:12:03.503Z,10.95
2022-11-18T19:14:31.357Z,12.45
2022-11-18T19:17:06.389Z,12.11
2022-11-18T20:29:48.481Z,13.09
2022-11-18T20:32:16.315Z,12.97
2022-11-18T20:34:44.316Z,12.55
2022-11-18T20:37:13.036Z,12.61
2022-11-18T20:39:40.886Z,12.52
2022-11-18T20:42:26.417Z,10.07
2022-11-18T20:44:55.858Z,13.22
2022-11-18T20:47:23.867Z,12.56
2022-11-18T20:49:51.796Z,11.73
2022-11-18T20:52:19.644Z,11.88
2022-11-18T20:54:47.560Z,12.29
2022-11-18T20:57:15.778Z,12.31
2022-11-18T20:59:43.754Z,11.39
2022-11-18T21:02:13.282Z,12.18
2022-11-18T21:04:41.219Z,12.47
2022-11-18T21:07:09.283Z,12.44
2022-11-18T21:09:37.152Z,12.40
2022-11-18T21:12:05.044Z,11.02
2022-11-18T21:14:31.873Z,11.46
2022-11-18T21:17:00.776Z,11.69
2022-11-18T21:19:30.281Z,11.41
2022-11-18T21:21:57.116Z,11.58
2022-11-18T21:24:25.683Z,12.82
2022-11-18T21:26:55.217Z,12.99
2022-11-18T21:29:23.087Z,11.07
2022-11-18T21:31:51.001Z,11.57
2022-11-18T21:34:18.882Z,12.96
2022-11-18T21:36:53.193Z,11.64
2022-11-18T21:39:22.541Z,10.96
2022-11-18T21:41:55.214Z,10.90
2022-11-18T21:44:23.910Z,10.12
2022-11-18T21:46:51.901Z,11.36
2022-11-18T21:49:20.008Z,10.54
2022-11-18T21:51:49.386Z,12.76
2022-11-18T21:54:18.280Z,12.76
2022-11-18T21:56:46.238Z,12.70
2022-11-18T21:59:14.123Z,11.33
2022-11-18T22:01:42.037Z,10.46
2022-11-18T22:04:30.118Z,11.84
2022-11-18T22:06:59.434Z,10.64
2022-11-18T22:09:31.561Z,11.25
2022-11-18T22:12:04.191Z,11.97
2022-11-18T22:14:32.063Z,12.20
2022-11-18T22:16:59.779Z,12.24
2022-11-18T22:19:27.728Z,11.50
2022-11-18T22:21:55.445Z,10.84
2022-11-18T22:24:24.582Z,10.35
2022-11-18T22:26:52.302Z,10.75
2022-11-18T22:29:20.205Z,10.58
2022-11-18T22:31:48.291Z,11.37
2022-11-18T22:34:16.041Z,11.46
2022-11-18T22:36:43.893Z,11.17
2022-11-18T22:39:11.609Z,11.60
2022-11-18T22:41:58.294Z,10.68
2022-11-18T22:44:26.020Z,11.02
2022-11-18T22:46:54.001Z,10.50
2022-11-18T22:49:21.954Z,12.02
2022-11-18T22:51:49.853Z,11.24
2022-11-18T22:57:06.851Z,9.81
2022-11-18T22:59:34.562Z,11.82
2022-11-18T23:02:02.635Z,10.71
2022-11-18T23:04:30.414Z,10.84
2022-11-18T23:06:58.215Z,9.18
2022-11-18T23:09:26.067Z,11.75
2022-11-18T23:12:11.144Z,11.75
2022-11-18T23:14:40.265Z,11.71
2022-11-18T23:17:08.044Z,10.90
2022-11-18T23:19:36.953Z,10.55
2022-11-18T23:22:04.715Z,10.63
2022-11-18T23:24:32.539Z,11.01
2022-11-18T23:27:00.292Z,9.75
2022-11-18T23:29:28.054Z,10.57
2022-11-18T23:31:57.198Z,10.54
2022-11-18T23:34:24.937Z,10.35
2022-11-18T23:36:52.674Z,9.85
2022-11-18T23:39:20.575Z,10.00
2022-11-18T23:41:48.500Z,11.21
2022-11-18T23:44:16.215Z,10.98
2022-11-18T23:46:43.923Z,10.10
2022-11-18T23:49:13.085Z,10.18
2022-11-18T23:51:41.321Z,9.04
2022-11-18T23:54:09.524Z,10.34
2022-11-18T23:56:38.411Z,9.61
2022-11-18T23:59:06.559Z,9.67
